createdAt,value
2019-04-20T00:00:37.191Z,40.22
2019-04-20T00:03:03.666Z,40.22
2019-04-20T00:05:30.798Z,40.20
2019-04-20T00:07:57.197Z,40.53
2019-04-20T00:10:25.888Z,40.51
2019-04-20T00:13:05.658Z,40.48
2019-04-20T00:15:21.683Z,40.54
2019-04-20T00:17:53.228Z,40.68
2019-04-20T00:20:20.689Z,40.70
2019-04-20T00:22:59.947Z,40.54
2019-04-20T00:25:52.740Z,40.55
2019-04-20T00:28:33.377Z,40.48
2019-04-20T00:30:54.424Z,40.58
2019-04-20T00:33:21.977Z,40.87
2019-04-20T00:35:33.926Z,41.11
2019-04-20T00:38:01.164Z,41.02
2019-04-20T00:40:28.462Z,40.88
2019-04-20T00:42:57.115Z,40.85
2019-04-20T00:45:28.441Z,40.93
2019-04-20T00:47:57.348Z,40.93
2019-04-20T00:50:34.187Z,40.95
2019-04-20T00:53:00.606Z,41.05
2019-04-20T00:55:14.857Z,40.93
2019-04-20T00:57:49.557Z,40.87
2019-04-20T01:00:27.339Z,40.87
2019-04-20T01:02:49.095Z,40.84
2019-04-20T01:05:22.895Z,40.87
2019-04-20T01:07:56.307Z,40.86
2019-04-20T01:10:21.650Z,40.87
2019-04-20T01:12:52.046Z,40.74
2019-04-20T01:15:24.566Z,40.66
2019-04-20T01:17:43.496Z,40.69
2019-04-20T01:20:10.480Z,40.72
2019-04-20T01:22:45.523Z,40.81
2019-04-20T01:25:09.878Z,40.82
2019-04-20T01:27:42.460Z,40.82
2019-04-20T01:30:10.479Z,40.76
2019-04-20T01:32:41.538Z,40.82
2019-04-20T01:35:10.009Z,40.85
2019-04-20T01:37:36.027Z,40.78
2019-04-20T01:39:55.168Z,40.75
2019-04-20T01:42:19.393Z,40.76
2019-04-20T01:44:48.591Z,40.75
2019-04-20T01:47:13.438Z,40.72
2019-04-20T01:49:40.755Z,40.80
2019-04-20T01:52:16.106Z,40.85
2019-04-20T01:54:59.419Z,40.88
2019-04-20T01:57:25.989Z,40.81
2019-04-20T02:00:00.585Z,40.86
2019-04-20T02:02:28.344Z,40.75
2019-04-20T02:05:06.069Z,40.87
2019-04-20T02:07:30.851Z,40.99
2019-04-20T02:09:58.267Z,40.93
2019-04-20T02:12:25.329Z,40.96
2019-04-20T02:14:53.653Z,41.03
2019-04-20T02:17:25.814Z,41.06
2019-04-20T02:20:06.571Z,40.99
2019-04-20T02:22:29.840Z,41.06
2019-04-20T02:24:38.841Z,40.98
2019-04-20T02:27:06.102Z,41.23
2019-04-20T02:29:50.965Z,41.08
2019-04-20T02:34:59.854Z,41.02
2019-04-20T02:37:56.921Z,41.04
2019-04-20T02:45:17.573Z,41.19
2019-04-20T02:50:07.506Z,41.46
2019-04-20T02:52:42.498Z,41.50
2019-04-20T02:55:02.109Z,41.36
2019-04-20T02:57:37.883Z,41.64
2019-04-20T03:02:13.360Z,41.58
2019-04-20T03:04:29.370Z,41.64
2019-04-20T03:07:04.206Z,41.71
2019-04-20T03:09:36.876Z,41.74
2019-04-20T03:12:23.768Z,41.65
2019-04-20T03:14:29.218Z,41.68
2019-04-20T03:16:57.219Z,41.65
2019-04-20T03:19:20.694Z,41.58
2019-04-20T03:22:02.361Z,41.62
2019-04-20T03:24:38.858Z,41.69
2019-04-20T03:26:47.496Z,41.72
2019-04-20T03:29:18.826Z,41.80
2019-04-20T03:36:59.363Z,42.03
2019-04-20T03:39:19.079Z,41.95
2019-04-20T03:41:35.182Z,41.91
2019-04-20T03:44:04.224Z,41.89
2019-04-20T03:46:31.099Z,41.79
2019-04-20T03:49:11.816Z,41.69
2019-04-20T03:51:42.356Z,41.72
2019-04-20T03:54:08.559Z,41.70
2019-04-20T03:56:49.244Z,41.50
2019-04-20T03:59:36.006Z,41.83
2019-04-20T04:02:29.728Z,41.97
2019-04-20T04:05:04.265Z,41.87
2019-04-20T04:07:26.511Z,41.81
2019-04-20T04:10:00.869Z,41.92
2019-04-20T04:12:35.590Z,41.86
2019-04-20T04:14:57.924Z,41.88
2019-04-20T04:17:28.805Z,41.99
2019-04-20T04:20:01.058Z,41.96
2019-04-20T04:22:37.613Z,42.05
2019-04-20T04:25:03.834Z,42.02
2019-04-20T04:27:37.292Z,41.98
2019-04-20T04:30:02.814Z,42.10
2019-04-20T04:32:39.377Z,42.12
2019-04-20T04:34:52.658Z,42.10
2019-04-20T04:37:24.160Z,42.19
2019-04-20T04:39:56.019Z,42.01
2019-04-20T04:42:23.348Z,42.11
2019-04-20T04:44:39.985Z,41.98
2019-04-20T04:47:00.256Z,41.97
2019-04-20T04:49:30.817Z,42.00
2019-04-20T04:52:02.286Z,41.94
2019-04-20T04:54:31.679Z,41.91
2019-04-20T04:56:48.403Z,41.96
2019-04-20T04:59:14.908Z,42.03
2019-04-20T05:01:42.089Z,42.03
2019-04-20T05:04:29.978Z,41.92
2019-04-20T05:06:53.590Z,42.23
2019-04-20T05:09:09.049Z,42.13
2019-04-20T05:11:34.922Z,42.17
2019-04-20T05:14:06.676Z,42.02
2019-04-20T05:16:46.363Z,41.90
2019-04-20T05:19:19.094Z,41.97
2019-04-20T05:21:56.421Z,41.89
2019-04-20T05:24:23.163Z,41.84
2019-04-20T05:26:56.675Z,41.81
2019-04-20T05:29:08.475Z,41.67
2019-04-20T05:31:36.778Z,41.60
2019-04-20T05:34:19.984Z,41.62
2019-04-20T05:36:46.691Z,41.85
2019-04-20T05:41:40.331Z,41.74
2019-04-20T05:44:04.707Z,41.76
2019-04-20T05:46:36.245Z,41.83
2019-04-20T05:49:08.867Z,41.90
2019-04-20T05:51:36.399Z,41.76
2019-04-20T05:54:05.630Z,41.72
2019-04-20T05:56:30.734Z,41.65
2019-04-20T05:58:56.804Z,41.75
2019-04-20T06:01:26.002Z,41.93
2019-04-20T06:03:48.835Z,41.80
2019-04-20T06:06:21.828Z,41.76
2019-04-20T06:08:53.777Z,41.64
2019-04-20T06:11:19.263Z,41.61
2019-04-20T06:13:38.099Z,41.59
2019-04-20T06:16:12.935Z,41.54
2019-04-20T06:18:40.102Z,41.56
2019-04-20T06:21:26.616Z,41.55
2019-04-20T06:23:50.882Z,41.40
2019-04-20T06:28:40.574Z,41.74
2019-04-20T06:31:16.426Z,41.79
2019-04-20T06:34:16.319Z,41.60
2019-04-20T06:36:32.494Z,41.51
2019-04-20T06:39:01.989Z,41.36
2019-04-20T06:41:40.194Z,41.38
2019-04-20T06:43:53.753Z,41.36
2019-04-20T06:46:22.707Z,41.37
2019-04-20T06:48:52.246Z,41.31
2019-04-20T06:51:18.841Z,41.23
2019-04-20T06:53:51.094Z,41.24
2019-04-20T06:56:42.016Z,41.15
2019-04-20T06:59:11.736Z,41.13
2019-04-20T07:01:42.229Z,41.03
2019-04-20T07:04:12.663Z,40.99
2019-04-20T07:06:48.409Z,41.01
2019-04-20T07:09:04.259Z,41.04
2019-04-20T07:11:23.861Z,41.05
2019-04-20T07:13:42.441Z,41.02
2019-04-20T07:16:38.975Z,41.32
2019-04-20T07:19:17.224Z,41.10
2019-04-20T07:22:15.249Z,40.87
2019-04-20T07:24:30.613Z,40.97
2019-04-20T07:27:00.770Z,41.73
2019-04-20T07:29:26.984Z,41.03
2019-04-20T07:31:49.691Z,41.44
2019-04-20T07:34:22.957Z,41.12
2019-04-20T07:37:04.530Z,40.98
2019-04-20T07:39:21.605Z,41.01
2019-04-20T07:41:50.549Z,40.72
2019-04-20T07:44:24.842Z,40.91
2019-04-20T07:46:56.450Z,40.77
2019-04-20T07:49:11.667Z,40.65
2019-04-20T07:51:23.095Z,40.69
2019-04-20T07:54:10.571Z,40.66
2019-04-20T07:56:34.979Z,40.56
2019-04-20T07:58:47.937Z,40.46
2019-04-20T08:01:52.647Z,40.40
2019-04-20T08:04:21.109Z,40.50
2019-04-20T08:06:43.368Z,40.31
2019-04-20T08:09:20.736Z,40.21
2019-04-20T08:11:56.724Z,40.19
2019-04-20T08:14:24.135Z,40.14
2019-04-20T08:19:17.459Z,40.16
2019-04-20T08:21:48.678Z,40.02
2019-04-20T08:24:15.948Z,40.05
2019-04-20T08:26:28.854Z,39.96
2019-04-20T08:29:00.324Z,39.98
2019-04-20T08:31:40.694Z,39.94
2019-04-20T08:34:28.515Z,39.94
2019-04-20T08:36:52.666Z,39.82
2019-04-20T08:41:53.450Z,39.63
2019-04-20T08:44:35.330Z,39.61
2019-04-20T08:46:53.506Z,39.53
2019-04-20T08:49:10.154Z,39.47
2019-04-20T08:51:45.083Z,39.27
2019-04-20T08:54:03.380Z,39.36
2019-04-20T08:56:27.167Z,39.27
2019-04-20T08:58:41.458Z,39.32
2019-04-20T09:01:10.291Z,39.30
2019-04-20T09:03:46.298Z,39.21
2019-04-20T09:06:14.326Z,39.08
2019-04-20T09:08:44.327Z,39.07
2019-04-20T09:11:14.364Z,38.97
2019-04-20T09:13:35.339Z,38.87
2019-04-20T09:15:55.632Z,39.15
2019-04-20T09:18:34.375Z,39.00
2019-04-20T09:21:01.286Z,38.68
2019-04-20T09:23:49.626Z,38.83
2019-04-20T09:26:18.622Z,38.70
2019-04-20T09:28:38.281Z,38.67
2019-04-20T09:31:35.182Z,38.56
2019-04-20T09:33:57.067Z,38.58
2019-04-20T09:36:23.716Z,38.00
2019-04-20T09:39:11.385Z,37.07
2019-04-20T09:41:59.866Z,36.74
2019-04-20T09:44:15.567Z,35.90
2019-04-20T09:46:48.515Z,36.06
2019-04-20T09:49:20.716Z,35.12
2019-04-20T09:51:55.296Z,35.48
2019-04-20T09:54:26.739Z,35.42
2019-04-20T09:56:55.361Z,35.57
2019-04-20T09:59:25.151Z,35.40
2019-04-20T10:01:35.135Z,35.14
2019-04-20T10:03:57.064Z,35.35
2019-04-20T10:06:26.293Z,35.02
2019-04-20T10:08:54.194Z,35.42
2019-04-20T10:11:19.413Z,34.79
2019-04-20T10:13:45.979Z,35.06
2019-04-20T10:16:11.982Z,34.34
2019-04-20T10:18:42.668Z,34.55
2019-04-20T10:21:05.717Z,34.15
2019-04-20T10:23:32.459Z,34.40
2019-04-20T10:25:58.684Z,34.13
2019-04-20T10:28:25.646Z,34.03
2019-04-20T10:30:52.618Z,33.87
2019-04-20T10:33:19.557Z,33.63
2019-04-20T10:35:45.613Z,33.00
2019-04-20T10:38:25.669Z,32.88
2019-04-20T10:41:03.358Z,33.07
2019-04-20T10:43:19.837Z,32.14
2019-04-20T10:45:46.801Z,32.17
2019-04-20T10:48:13.153Z,32.23
2019-04-20T10:50:39.126Z,31.71
2019-04-20T10:53:05.772Z,31.71
2019-04-20T10:55:31.724Z,31.89
2019-04-20T10:57:57.734Z,31.63
2019-04-20T11:00:37.638Z,31.86
2019-04-20T11:03:03.841Z,31.19
2019-04-20T11:05:30.700Z,31.13
2019-04-20T11:07:56.882Z,30.26
2019-04-20T11:10:28.521Z,30.82
2019-04-20T11:12:50.658Z,30.99
2019-04-20T11:15:16.593Z,30.87
2019-04-20T11:17:43.535Z,30.46
2019-04-20T11:20:09.719Z,30.07
2019-04-20T11:22:35.838Z,29.53
2019-04-20T11:25:02.183Z,28.59
2019-04-20T11:27:28.113Z,29.58
2019-04-20T11:29:54.123Z,29.31
2019-04-20T11:32:20.278Z,27.75
2019-04-20T11:34:47.124Z,28.08
2019-04-20T11:37:13.271Z,28.99
2019-04-20T11:39:39.204Z,29.08
2019-04-20T11:42:05.670Z,27.93
2019-04-20T11:44:33.283Z,28.32
2019-04-20T11:47:00.824Z,28.49
2019-04-20T11:49:27.799Z,28.18
2019-04-20T11:51:55.217Z,28.31
2019-04-20T11:54:22.068Z,28.58
2019-04-20T11:56:49.058Z,27.15
2019-04-20T11:59:15.219Z,27.12
2019-04-20T12:01:49.516Z,28.31
2019-04-20T12:04:28.450Z,28.11
2019-04-20T12:06:41.046Z,28.20
2019-04-20T12:09:08.280Z,27.24
2019-04-20T12:11:47.521Z,27.34
2019-04-20T12:14:02.756Z,27.42
2019-04-20T12:16:29.539Z,27.76
2019-04-20T12:18:56.745Z,27.83
2019-04-20T12:21:23.126Z,27.59
2019-04-20T12:23:49.092Z,25.99
2019-04-20T12:26:16.011Z,26.63
2019-04-20T12:28:43.399Z,26.51
2019-04-20T12:31:13.725Z,26.64
2019-04-20T12:33:37.370Z,26.87
2019-04-20T12:36:06.040Z,27.27
2019-04-20T12:38:32.887Z,27.58
2019-04-20T12:41:01.457Z,27.26
2019-04-20T12:43:27.793Z,27.67
2019-04-20T12:45:53.871Z,27.75
2019-04-20T12:48:19.908Z,27.90
2019-04-20T12:50:45.960Z,28.07
2019-04-20T12:53:12.843Z,27.99
2019-04-20T12:55:38.979Z,28.16
2019-04-20T12:58:05.091Z,28.10
2019-04-20T13:00:45.769Z,28.42
2019-04-20T13:03:12.039Z,27.98
2019-04-20T13:05:38.139Z,27.94
2019-04-20T13:08:04.590Z,28.33
2019-04-20T13:10:31.893Z,28.27
2019-04-20T13:13:02.582Z,27.81
2019-04-20T13:15:34.253Z,28.19
2019-04-20T13:18:01.293Z,28.22
2019-04-20T13:20:28.037Z,28.58
2019-04-20T13:22:54.983Z,28.59
2019-04-20T13:25:21.128Z,28.56
2019-04-20T13:27:47.378Z,28.65
2019-04-20T13:30:14.335Z,28.55
2019-04-20T13:32:41.459Z,28.52
2019-04-20T13:35:07.985Z,28.68
2019-04-20T13:37:36.828Z,28.79
2019-04-20T13:40:03.039Z,28.93
2019-04-20T13:42:31.261Z,28.95
2019-04-20T13:44:57.428Z,29.07
2019-04-20T13:47:23.398Z,28.95
2019-04-20T13:49:49.390Z,29.10
2019-04-20T13:52:15.538Z,29.23
2019-04-20T13:54:42.098Z,29.29
2019-04-20T13:57:11.098Z,29.54
2019-04-20T13:59:45.798Z,29.56
2019-04-20T14:02:14.994Z,29.70
2019-04-20T14:04:46.506Z,29.73
2019-04-20T14:07:15.058Z,29.80
2019-04-20T14:09:41.464Z,29.96
2019-04-20T14:12:16.222Z,30.00
2019-04-20T14:14:35.443Z,30.06
2019-04-20T14:17:01.451Z,30.01
2019-04-20T14:19:27.579Z,29.98
2019-04-20T14:21:54.236Z,30.11
2019-04-20T14:24:21.328Z,30.29
2019-04-20T14:26:48.488Z,30.42
2019-04-20T14:29:14.767Z,30.48
2019-04-20T14:31:41.869Z,30.52
2019-04-20T14:34:08.842Z,30.67
2019-04-20T14:36:34.946Z,30.79
2019-04-20T14:39:02.218Z,30.84
2019-04-20T14:41:28.515Z,30.88
2019-04-20T14:43:55.281Z,30.98
2019-04-20T14:46:21.400Z,31.11
2019-04-20T14:48:47.503Z,31.14
2019-04-20T14:51:14.568Z,31.09
2019-04-20T14:53:41.289Z,31.22
2019-04-20T14:56:07.499Z,31.32
2019-04-20T14:58:45.143Z,31.36
2019-04-20T15:01:30.310Z,31.41
2019-04-20T15:04:01.528Z,31.47
2019-04-20T15:06:25.437Z,31.51
2019-04-20T15:08:52.537Z,31.54
2019-04-20T15:11:18.870Z,31.56
2019-04-20T15:13:44.775Z,31.59
2019-04-20T15:16:10.921Z,31.68
2019-04-20T15:18:51.907Z,31.67
2019-04-20T15:21:21.607Z,31.66
2019-04-20T15:23:47.913Z,31.72
2019-04-20T15:26:13.957Z,31.76
2019-04-20T15:28:39.968Z,31.80
2019-04-20T15:31:06.087Z,31.90
2019-04-20T15:33:32.815Z,31.96
2019-04-20T15:35:59.962Z,31.91
2019-04-20T15:38:27.056Z,31.90
2019-04-20T15:40:53.314Z,31.91
2019-04-20T15:43:24.024Z,31.98
2019-04-20T15:45:47.527Z,32.07
2019-04-20T15:48:14.242Z,32.08
2019-04-20T15:50:41.352Z,32.16
2019-04-20T15:53:07.973Z,32.17
2019-04-20T15:55:37.550Z,32.26
2019-04-20T15:58:04.334Z,32.24
2019-04-20T16:00:29.588Z,32.37
2019-04-20T16:02:57.467Z,32.49
2019-04-20T16:05:31.084Z,32.63
2019-04-20T16:08:01.966Z,32.77
2019-04-20T16:10:28.407Z,32.84
2019-04-20T16:13:05.644Z,32.94
2019-04-20T16:15:22.154Z,32.97
2019-04-20T16:17:51.599Z,33.12
2019-04-20T16:20:20.206Z,33.24
2019-04-20T16:22:44.744Z,33.21
2019-04-20T16:25:13.695Z,33.51
2019-04-20T16:27:39.706Z,33.51
2019-04-20T16:30:07.411Z,33.56
2019-04-20T16:32:34.374Z,33.65
2019-04-20T16:35:00.424Z,33.92
2019-04-20T16:37:26.472Z,33.98
2019-04-20T16:39:52.504Z,34.12
2019-04-20T16:42:18.659Z,34.39
2019-04-20T16:44:45.219Z,34.30
2019-04-20T16:47:12.293Z,34.61
2019-04-20T16:49:39.070Z,34.56
2019-04-20T16:52:05.306Z,34.67
2019-04-20T16:54:32.302Z,34.76
2019-04-20T16:56:58.408Z,34.83
2019-04-20T16:59:24.720Z,34.85
2019-04-20T17:01:50.704Z,34.86
2019-04-20T17:04:21.852Z,34.91
2019-04-20T17:06:47.719Z,34.95
2019-04-20T17:09:13.875Z,34.92
2019-04-20T17:11:39.867Z,35.00
2019-04-20T17:14:06.653Z,35.04
2019-04-20T17:16:33.529Z,35.04
2019-04-20T17:18:59.707Z,35.18
2019-04-20T17:21:28.607Z,35.13
2019-04-20T17:23:53.397Z,35.27
2019-04-20T17:26:25.138Z,35.41
2019-04-20T17:28:55.911Z,35.47
2019-04-20T17:31:29.626Z,35.49
2019-04-20T17:34:04.633Z,35.58
2019-04-20T17:36:27.711Z,35.54
2019-04-20T17:38:56.512Z,35.70
2019-04-20T17:41:41.425Z,35.69
2019-04-20T17:44:07.236Z,35.83
2019-04-20T17:46:28.795Z,35.82
2019-04-20T17:49:00.844Z,35.95
2019-04-20T17:51:36.710Z,36.08
2019-04-20T17:53:54.640Z,36.09
2019-04-20T17:56:15.283Z,36.10
2019-04-20T17:58:41.443Z,36.15
2019-04-20T18:01:35.809Z,36.19
2019-04-20T18:04:27.794Z,36.13
2019-04-20T18:06:41.595Z,36.38
2019-04-20T18:09:03.125Z,36.37
2019-04-20T18:11:22.562Z,36.59
2019-04-20T18:13:48.519Z,36.56
2019-04-20T18:16:45.301Z,36.66
2019-04-20T18:19:04.151Z,36.68
2019-04-20T18:21:41.459Z,36.94
2019-04-20T18:24:15.768Z,36.91
2019-04-20T18:26:51.940Z,37.11
2019-04-20T18:29:21.357Z,36.99
2019-04-20T18:31:35.550Z,37.18
2019-04-20T18:34:08.922Z,37.25
2019-04-20T18:36:37.552Z,37.24
2019-04-20T18:39:06.218Z,37.19
2019-04-20T18:41:35.345Z,37.24
2019-04-20T18:43:58.610Z,37.18
2019-04-20T18:46:39.992Z,37.32
2019-04-20T18:49:12.702Z,37.38
2019-04-20T18:51:18.129Z,37.44
2019-04-20T18:53:47.939Z,37.53
2019-04-20T18:56:12.267Z,37.49
2019-04-20T18:58:38.226Z,37.55
2019-04-20T19:01:05.248Z,37.68
2019-04-20T19:03:35.709Z,37.84
2019-04-20T19:06:00.172Z,38.04
2019-04-20T19:08:35.265Z,38.11
2019-04-20T19:11:01.745Z,38.14
2019-04-20T19:13:34.216Z,38.12
2019-04-20T19:16:15.478Z,38.49
2019-04-20T19:18:45.223Z,38.46
2019-04-20T19:21:01.267Z,38.54
2019-04-20T19:23:27.499Z,38.47
2019-04-20T19:26:00.839Z,38.81
2019-04-20T19:28:26.110Z,38.80
2019-04-20T19:31:01.831Z,38.95
2019-04-20T19:33:30.984Z,39.02
2019-04-20T19:35:52.929Z,38.96
2019-04-20T19:38:19.038Z,38.78
2019-04-20T19:40:53.872Z,38.95
2019-04-20T19:43:15.561Z,38.99
2019-04-20T19:46:07.395Z,39.07
2019-04-20T19:48:19.748Z,39.31
2019-04-20T19:50:54.652Z,39.25
2019-04-20T19:53:21.181Z,39.20
2019-04-20T19:55:40.866Z,39.65
2019-04-20T19:58:07.182Z,39.53
2019-04-20T20:00:40.939Z,39.79
2019-04-20T20:03:07.801Z,40.08
2019-04-20T20:05:41.101Z,40.07
2019-04-20T20:08:11.150Z,40.10
2019-04-20T20:10:33.027Z,40.13
2019-04-20T20:13:00.690Z,40.11
2019-04-20T20:15:32.024Z,40.32
2019-04-20T20:18:14.041Z,40.37
2019-04-20T20:20:41.133Z,40.48
2019-04-20T20:22:50.485Z,40.54
2019-04-20T20:25:16.803Z,40.70
2019-04-20T20:27:52.503Z,40.80
2019-04-20T20:30:18.602Z,40.87
2019-04-20T20:32:56.805Z,40.77
2019-04-20T20:35:15.350Z,40.95
2019-04-20T20:37:45.202Z,40.82
2019-04-20T20:40:16.029Z,40.82
2019-04-20T20:42:46.016Z,41.12
2019-04-20T20:45:14.593Z,41.34
2019-04-20T20:48:01.974Z,41.38
2019-04-20T20:50:19.946Z,41.46
2019-04-20T20:52:36.886Z,41.49
2019-04-20T20:54:59.112Z,41.47
2019-04-20T20:57:23.918Z,41.52
2019-04-20T20:59:53.401Z,41.58
2019-04-20T21:02:20.567Z,41.95
2019-04-20T21:04:41.744Z,41.97
2019-04-20T21:07:08.826Z,41.86
2019-04-20T21:09:35.477Z,41.89
2019-04-20T21:12:06.966Z,42.17
2019-04-20T21:14:33.177Z,42.13
2019-04-20T21:17:04.970Z,42.22
2019-04-20T21:19:45.263Z,42.30
2019-04-20T21:21:59.854Z,42.50
2019-04-20T21:24:26.517Z,43.03
2019-04-20T21:26:53.821Z,42.76
2019-04-20T21:29:27.394Z,42.76
2019-04-20T21:31:56.802Z,42.97
2019-04-20T21:34:19.913Z,43.03
2019-04-20T21:36:43.349Z,43.18
2019-04-20T21:39:16.253Z,43.47
2019-04-20T21:41:40.818Z,43.27
2019-04-20T21:44:12.358Z,43.37
2019-04-20T21:46:40.874Z,43.49
2019-04-20T21:49:12.876Z,43.50
2019-04-20T21:51:37.278Z,43.42
2019-04-20T21:53:58.161Z,43.28
2019-04-20T21:56:23.869Z,43.13
2019-04-20T21:58:55.338Z,42.80
2019-04-20T22:01:27.208Z,43.15
2019-04-20T22:03:45.586Z,43.35
2019-04-20T22:06:11.561Z,43.32
2019-04-20T22:08:39.420Z,43.35
2019-04-20T22:11:05.921Z,43.35
2019-04-20T22:13:37.636Z,43.46
2019-04-20T22:16:05.175Z,43.64
2019-04-20T22:18:28.795Z,43.48
2019-04-20T22:21:05.958Z,43.43
2019-04-20T22:23:38.814Z,43.52
2019-04-20T22:26:03.107Z,43.52
2019-04-20T22:28:18.404Z,43.30
2019-04-20T22:30:44.377Z,43.14
2019-04-20T22:33:23.612Z,43.16
2019-04-20T22:35:54.196Z,43.24
2019-04-20T22:38:17.525Z,43.46
2019-04-20T22:40:43.305Z,43.57
2019-04-20T22:43:10.372Z,43.65
2019-04-20T22:45:41.218Z,43.56
2019-04-20T22:48:08.335Z,43.99
2019-04-20T22:50:46.153Z,43.79
2019-04-20T22:53:18.011Z,43.84
2019-04-20T22:55:47.568Z,43.96
2019-04-20T22:58:03.308Z,43.78
2019-04-20T23:00:36.444Z,44.29
2019-04-20T23:02:50.974Z,44.20
2019-04-20T23:05:18.581Z,44.01
2019-04-20T23:07:44.510Z,44.17
2019-04-20T23:10:11.289Z,44.54
2019-04-20T23:12:40.052Z,44.77
2019-04-20T23:15:06.207Z,44.74
2019-04-20T23:17:39.814Z,44.52
2019-04-20T23:20:03.251Z,45.04
2019-04-20T23:22:34.821Z,45.30
2019-04-20T23:24:55.583Z,45.50
2019-04-20T23:27:28.852Z,45.22
2019-04-20T23:29:49.427Z,45.31
2019-04-20T23:32:17.387Z,45.22
2019-04-20T23:34:44.635Z,45.97
2019-04-20T23:37:19.648Z,45.94
2019-04-20T23:39:41.516Z,46.49
2019-04-20T23:42:09.551Z,45.88
2019-04-20T23:44:57.668Z,46.05
2019-04-20T23:47:39.262Z,45.82
2019-04-20T23:50:22.400Z,46.01
2019-04-20T23:52:53.320Z,46.39
2019-04-20T23:55:05.986Z,46.01
2019-04-20T23:57:29.374Z,46.11
2019-04-20T23:59:55.272Z,46.59
